1975 Severe Tropical Cyclone JOAN (1975334S11128)


IBTrACS version v04r00. Visit IBTrACS website for data access.
Please direct all questions to the IBTrACS Q and A forum

Storm track - Intensity - Wind Radii - Intensity Data - Source Data - All data

Summary Information

Storm ID 1975334S11128
Start Nov 30 00Z
Landfall Dec 7 22Z
Max Intensity 135 kt (Dec 7 00Z), 915 mb (Dec 7 00Z)
End Dec 10 01Z
ATCF IDs SH041976
Track status Best track data.

Storm track plot

Map of storm track

Intensity plots

Map of storm track

Radial wind information

No radial wind information for this storm


Position and Intensity Table

BASIN ISO_TIME_________ NATURE LAT LON WMO WIND WMO PRES USA WIND BOM WIND BOM PRES DS824 WIND DS824 PRES TD9636 WIND NEUMANN WIND NEUMANN PRES
degrees north degrees east kts mb kts kts mb kts mb kts kts mb
SI 1975-11-30 00:00:00 TS -11.00 128.40 20 22
SI 01:00:00 TS -11.03 128.40 25 1005 20 25 1005 22
SI 03:00:00 TS -11.06 128.40 22 25 1002 24
SI 04:00:00 TS -11.08 128.40 25 1002 23 25 1002 24
SI 06:00:00 TS -11.14 128.40 25 25 999 35 998 26 25 1002
SI 07:00:00 TS -11.17 128.39 25 998 25 25 998 35 997 26 26 1001
SI 09:00:00 TS -11.21 128.35 27 28 997 35 997 28 30 1000
SI 10:00:00 TS -11.22 128.33 30 997 28 30 997 35 997 28 31 999
SI 12:00:00 TS -11.27 128.29 30 30 997 35 997 30 35 998
SI 13:00:00 TS -11.29 128.28 30 997 30 30 997 35 996 30 35 997
SI 15:00:00 TS -11.35 128.28 32 30 996 37 995 32 35 997
SI 16:00:00 TS -11.38 128.28 30 996 33 30 996 38 995 32 35 996
SI 18:00:00 TS -11.44 128.28 35 36 994 40 994 34 35 996
SI 19:00:00 TS -11.47 128.27 40 994 35 40 994 40 993 35 35 995
SI 21:00:00 TS -11.53 128.25 37 40 994 41 993 36 37 995
SI 22:00:00 TS -11.56 128.24 40 994 38 40 994 41 992 37 38 994
SI 1975-12-01 00:00:00 TS -11.63 128.21 40 40 994 42 992 39 40 994
SI 01:00:00 TS -11.66 128.20 40 994 40 40 994 42 991 39 40 993
SI 03:00:00 TS -11.73 128.16 40 40 992 43 991 40 42 992
SI 04:00:00 TS -11.76 128.14 40 992 40 40 992 44 990 40 43 992
SI 06:00:00 TS -11.84 128.12 40 40 990 45 990 41 45 991
SI 07:00:00 TS -11.88 128.10 40 990 40 40 990 45 989 41 45 990
SI 09:00:00 TS -11.97 128.06 42 43 989 47 989 42 47 990
SI 10:00:00 TS -12.01 128.05 45 989 43 45 989 48 989 42 48 989
SI 12:00:00 TS -12.11 128.02 45 45 989 50 989 43 50 989
SI 13:00:00 TS -12.14 128.00 45 989 45 45 989 50 988 43 50 988
SI 15:00:00 TS -12.20 127.96 45 45 989 50 988 44 50 988
SI 16:00:00 TS -12.23 127.95 45 989 45 45 989 50 988 44 50 988
SI 18:00:00 TS -12.29 127.92 45 48 988 50 988 46 50 988
SI 19:00:00 TS -12.32 127.91 50 988 45 50 988 50 988 46 50 988
SI 21:00:00 TS -12.38 127.87 47 50 988 50 988 47 50 988
SI 22:00:00 TS -12.41 127.85 50 988 48 50 988 50 988 47 50 988
SI 1975-12-02 00:00:00 TS -12.48 127.82 50 50 988 50 988 49 50 988
SI 01:00:00 TS -12.51 127.80 50 988 50 50 988 50 987 50 50 987
SI 03:00:00 TS -12.58 127.76 52 50 986 52 986 52 52 986
SI 04:00:00 TS -12.61 127.74 50 986 53 50 986 53 985 53 53 986
SI 06:00:00 TS -12.68 127.68 55 53 984 55 984 55 55 985
SI 07:00:00 TS -12.72 127.65 55 984 55 55 984 55 983 56 55 984
SI 09:00:00 TS -12.81 127.57 57 55 982 57 982 58 57 983
SI 10:00:00 TS -12.86 127.53 55 982 58 55 982 58 981 59 58 982
SI 12:00:00 TS -12.96 127.44 60 58 980 60 980 62 60 981
SI 13:00:00 TS -13.00 127.39 60 980 60 60 980 60 979 62 60 980
SI 15:00:00 TS -13.08 127.29 62 60 978 62 978 63 62 979
SI 16:00:00 TS -13.12 127.23 60 978 63 60 978 63 977 63 63 978
SI 18:00:00 TS -13.22 127.11 65 63 976 65 976 65 65 977
SI 19:00:00 TS -13.27 127.05 65 976 65 65 976 65 975 65 65 976
SI 21:00:00 TS -13.36 126.91 67 68 974 67 974 66 67 975
SI 22:00:00 TS -13.40 126.85 70 974 68 70 974 68 974 66 68 975
SI 1975-12-03 00:00:00 TS -13.48 126.71 70 70 973 70 973 68 70 974
SI 01:00:00 TS -13.51 126.65 70 973 70 70 973 70 972 69 70 973
SI 03:00:00 TS -13.56 126.52 72 73 972 70 971 71 72 972
SI 04:00:00 TS -13.59 126.46 75 972 73 75 972 70 971 72 73 972
SI 06:00:00 TS -13.64 126.33 75 75 970 70 970 74 75 971
SI 07:00:00 TS -13.66 126.27 75 970 75 75 970 70 969 75 75 970
SI 09:00:00 TS -13.68 126.15 77 75 968 72 968 77 77 969
SI 10:00:00 TS -13.70 126.08 75 968 78 75 968 73 967 78 78 968
SI 12:00:00 TS -13.74 125.91 80 78 966 75 966 81 80 967
SI 13:00:00 TS -13.78 125.80 80 966 80 80 966 76 965 81 80 966
SI 15:00:00 TS -13.86 125.52 82 80 963 80 963 83 82 964
SI 16:00:00 TS -13.90 125.36 80 963 83 80 963 81 962 83 83 963
SI 18:00:00 TS -14.00 125.03 85 83 960 85 960 85 85 962
SI 19:00:00 TS -14.06 124.85 85 960 85 85 960 85 959 86 85 961
SI 21:00:00 TS -14.15 124.48 87 88 957 87 957 87 87 959
SI 22:00:00 TS -14.20 124.30 90 957 88 90 957 88 956 88 88 958
SI 1975-12-04 00:00:00 TS -14.31 123.95 90 90 954 90 954 90 90 956
SI 01:00:00 TS -14.35 123.80 90 954 90 90 954 90 953 90 91 955
SI 03:00:00 TS -14.42 123.54 92 90 952 92 952 91 95 953
SI 04:00:00 TS -14.45 123.43 90 952 93 90 952 93 952 91 96 952
SI 06:00:00 TS -14.52 123.22 95 90 951 95 951 93 100 951
SI 07:00:00 TS -14.55 123.12 90 951 95 90 951 95 950 93 100 950
SI 09:00:00 TS -14.61 122.93 95 90 949 95 949 94 100 949
SI 10:00:00 TS -14.65 122.84 90 949 95 90 949 95 949 94 100 949
SI 12:00:00 TS -14.75 122.66 95 90 948 95 948 96 100 948
SI 13:00:00 TS -14.83 122.56 90 948 95 90 948 95 947 96 100 947
SI 15:00:00 TS -15.02 122.34 97 93 946 97 946 97 102 947
SI 16:00:00 TS -15.12 122.23 95 946 98 95 946 98 946 97 103 946
SI 18:00:00 TS -15.34 121.99 100 95 945 100 945 98 105 946
SI 19:00:00 TS -15.44 121.87 95 945 100 95 945 100 944 98 105 945
SI 21:00:00 TS -15.66 121.62 100 98 943 100 943 99 105 944
SI 22:00:00 TS -15.76 121.50 100 943 100 100 943 100 943 100 105 944
SI 1975-12-05 00:00:00 TS -15.94 121.25 100 100 942 100 942 101 105 943
SI 01:00:00 TS -16.00 121.14 100 942 100 100 942 100 941 101 105 942
SI 03:00:00 TS -16.05 120.93 102 100 940 102 940 102 107 941
SI 04:00:00 TS -16.07 120.83 100 940 103 100 940 103 940 102 108 941
SI 06:00:00 TS -16.11 120.63 105 100 939 105 939 103 110 940
SI 07:00:00 TS -16.13 120.53 100 939 105 100 939 105 938 103 110 939
SI 09:00:00 TS -16.15 120.35 105 103 938 105 937 104 112 938
SI 10:00:00 TS -16.16 120.25 105 938 105 105 938 105 937 105 113 938
SI 12:00:00 TS -16.19 120.08 105 105 936 105 936 106 115 937
SI 13:00:00 TS -16.21 119.98 105 936 105 105 936 105 935 106 115 936
SI 15:00:00 TS -16.24 119.78 107 105 935 107 934 107 115 935
SI 16:00:00 TS -16.25 119.68 105 935 108 105 935 108 934 107 115 935
SI 18:00:00 TS -16.29 119.48 110 105 933 110 933 109 115 934
SI 19:00:00 TS -16.31 119.38 105 933 110 105 933 110 932 109 115 933
SI 21:00:00 TS -16.34 119.17 110 108 931 112 931 110 117 932
SI 22:00:00 TS -16.35 119.07 110 931 110 110 931 113 930 110 118 931
SI 1975-12-06 00:00:00 TS -16.39 118.88 110 110 929 115 929 112 120 930
SI 01:00:00 TS -16.41 118.79 110 929 110 110 929 115 928 112 120 929
SI 03:00:00 TS -16.44 118.63 112 110 928 115 927 114 122 928
SI 04:00:00 TS -16.45 118.56 110 928 113 110 928 115 927 114 123 928
SI 06:00:00 TS -16.49 118.41 115 110 926 115 926 116 125 927
SI 07:00:00 TS -16.52 118.34 110 926 115 110 926 115 925 117 125 926
SI 09:00:00 TS -16.55 118.22 117 110 925 117 924 118 125 925
SI 10:00:00 TS -16.58 118.16 110 925 118 110 925 118 924 119 125 925
SI 12:00:00 TS -16.64 118.06 120 110 923 120 923 121 125 924
SI 13:00:00 TS -16.68 118.02 110 923 120 110 923 120 922 121 125 923
SI 15:00:00 TS -16.78 117.97 122 110 921 120 921 121 127 922
SI 16:00:00 TS -16.83 117.95 110 921 123 110 921 120 920 121 128 921
SI 18:00:00 TS -16.97 117.92 125 110 919 120 919 122 130 920
SI 19:00:00 TS -17.04 117.91 110 919 125 110 919 120 918 122 130 919
SI 21:00:00 TS -17.22 117.90 125 110 917 122 917 123 132 918
SI 22:00:00 TS -17.32 117.91 110 917 125 110 917 123 916 123 133 917
SI 1975-12-07 00:00:00 TS -17.53 117.92 125 113 915 125 915 124 135 916
SI 01:00:00 TS -17.64 117.92 115 915 125 115 915 125 915 124 135 915
SI 03:00:00 TS -17.86 117.93 125 115 915 125 915 124 135 915
SI 04:00:00 TS -17.97 117.94 115 915 125 115 915 125 915 124 135 915
SI 06:00:00 TS -18.22 117.97 125 115 915 125 915 124 135 915
SI 07:00:00 TS -18.34 117.98 115 915 125 115 915 125 915 124 135 915
SI 09:00:00 TS -18.58 117.99 125 115 915 125 915 124 135 915
SI 10:00:00 TS -18.70 118.00 115 915 125 115 915 125 915 124 135 915
SI 12:00:00 TS -18.96 118.02 125 115 915 125 915 124 135 915
SI 13:00:00 TS -19.10 118.03 115 915 124 115 915 125 915 122 135 915
SI 15:00:00 TS -19.38 118.06 122 115 915 125 915 120 135 915
SI 16:00:00 TS -19.52 118.08 115 915 121 115 915 125 915 119 135 915
SI 18:00:00 TS -19.80 118.11 120 115 915 125 915 117 135 915
SI 19:00:00 TS -19.95 118.12 115 915 118 115 915 122 918 116 125 915
SI 21:00:00 TS -20.23 118.13 115 115 915 117 925 114 107 916
SI 22:00:00 TS -20.38 118.13 115 915 113 115 915 115 928 113 98 916
SI 22:20:00 TS -20.44 118.13 115 112 115 915 114 929 112 95 916
SI 23:00:00 TS -20.51 118.13 115 917 111 115 917 112 931 112 89 916
SI 1975-12-08 00:00:00 TS -20.64 118.12 110 110 926 110 935 111 80 917
SI 01:00:00 TS -20.77 118.10 105 935 107 105 935 105 938 108 75 922
SI 03:00:00 TS -20.98 118.05 102 94 943 97 946 103 67 933
SI 04:00:00 TS -21.09 118.01 90 947 100 90 947 93 949 101 63 938
SI 06:00:00 TS -21.29 117.94 95 83 953 85 957 96 55 949
SI 07:00:00 TS -21.39 117.90 80 957 92 80 957 82 959 93 53 951
SI 09:00:00 TS -21.58 117.82 87 73 962 77 964 88 50 957
SI 10:00:00 TS -21.68 117.77 70 965 85 70 965 75 966 86 48 960
SI 12:00:00 TS -21.88 117.69 80 63 969 70 971 81 45 966
SI 13:00:00 TS -21.99 117.65 60 971 77 60 971 68 972 78 43 967
SI 15:00:00 TS -22.22 117.58 72 53 974 65 976 73 40 971
SI 16:00:00 TS -22.34 117.54 50 976 70 50 976 63 977 70 38 973
SI 18:00:00 TS -22.58 117.45 65 46 979 60 981 65 35 977
SI 19:00:00 TS -22.71 117.40 45 981 62 45 981 59 981 62 35 977
SI 21:00:00 TS -22.97 117.28 57 41 982 57 983 57 35 980
SI 22:00:00 TS -23.09 117.23 40 983 55 40 983 56 983 54 35 980
SI 1975-12-09 00:00:00 TS -23.33 117.15 50 40 984 55 985 49 35 983
SI 01:00:00 TS -23.45 117.12 40 985 48 40 985 53 985 48 34 983
SI 03:00:00 TS -23.70 117.05 45 36 986 50 987 47 32 985
SI 04:00:00 TS -23.83 117.01 35 987 43 35 987 48 988 47 31 986
SI 06:00:00 TS -24.07 116.97 40 35 989 45 990 46 30 988
SI 07:00:00 TS -24.18 116.95 35 990 39 35 990 45 990 45 30 988
SI 09:00:00 TS -24.40 116.93 37 31 990 45 991 44 30 989
SI 10:00:00 TS -24.50 116.93 30 991 36 30 991 45 991 44 30 989
SI 12:00:00 TS -24.73 116.92 35 30 991 45 992 43 30 991
SI 13:00:00 TS -24.86 116.91 30 992 35 30 992 44 992 30 991
SI 15:00:00 TS -25.14 116.90 37 30 992 42 993 30 992
SI 16:00:00 TS -25.29 116.90 30 993 38 30 993 41 993 30 992
SI 18:00:00 TS -25.59 116.89 40 26 993 40 994 30 993
SI 19:00:00 TS -25.74 116.89 25 994 40 25 994 39 994 30 993
SI 21:00:00 TS -26.07 116.92 42 25 994 37 995 30 994
SI 22:00:00 TS -26.23 116.94 25 995 43 25 995 36 995 30 994
SI 1975-12-10 00:00:00 TS -26.57 117.00 45 25 995 35 996 30 995
SI 01:00:00 NR -26.90 117.50 25 996 25 996

Source Information

Agency Information
USA bsh041976.txt
TOKYO
CMA
HKO
NEWDELHI
REUNION
BOM IDCKMSTM0S.csv:Line=9883:JOAN
NADI
WELLINGTON
DS824 aus_area.dat:541:JOAN
TD9636 cons_worldwide_trop_cyclone_18710101-19891231-006:Line=9988
TD9635
NEUMANN tracks.sh:Storm=450:JOAN:BSH0476:BM458
MLC

All available IBTrACS Data

SEASON BASIN SUBBASIN ISO_TIME_________ NATURE LAT LON WMO WIND WMO PRES WMO AGENCY DIST2LAND LANDFALL IFLAG USA AGENCY USA ATCF_ID USA LAT USA LON USA WIND USA SSHS BOM LAT BOM LON BOM TYPE BOM WIND BOM PRES BOM TNUM BOM CI BOM PRES_METHOD DS824 LAT DS824 LON DS824 STAGE DS824 WIND DS824 PRES TD9636 LAT TD9636 LON TD9636 STAGE TD9636 WIND NEUMANN LAT NEUMANN LON NEUMANN CLASS NEUMANN WIND NEUMANN PRES STORM SPEED STORM DIR
Year degrees north degrees east kts mb km km degrees north degrees east kts 1 degrees north degrees east kts mb 1 1 degrees north degrees east kts mb degrees north degrees east kts degrees north degrees east kts mb kts degrees
1976 SI WA 1975-11-30 00:00:00 TS -11.00 128.40 193 193 O_________O___ jtwc_sh SH041976 -11.00 128.40 20 -1 -11.00 128.40 1 22 2 135
1976 SI WA 01:00:00 TS -11.03 128.40 25 1005 bom 193 190 P_____O___P___ SH041976 -11.01 128.41 20 -1 -11.10 128.40 20 25 1005 1.50 -11.02 128.39 1 22 1 0
1976 SI WA 03:00:00 TS -11.06 128.40 190 190 P_____P___P___ SH041976 -11.04 128.41 22 -1 -11.09 128.40 20 25 1002 -11.07 128.37 1 24 1 0
1976 SI WA 04:00:00 TS -11.08 128.40 25 1002 bom 190 190 P_____O___P___ SH041976 -11.06 128.41 23 -1 -11.10 128.40 20 25 1002 2.00 -11.09 128.36 1 24 2 177
1976 SI WA 06:00:00 TS -11.14 128.40 190 188 O_____P__OP_O_ jtwc_sh SH041976 -11.10 128.40 25 -1 -11.17 128.41 20 25 999 -11.20 128.40 TC 35 998 -11.14 128.35 1 26 -11.20 128.60 TC 25 1002 2 0
1976 SI WA 07:00:00 TS -11.17 128.39 25 998 bom 188 188 P_____O__PP_P_ SH041976 -11.13 128.39 25 -1 -11.20 128.40 20 25 998 2.00 -11.19 128.36 TC 35 997 -11.17 128.34 1 26 -11.22 128.56 TC 26 1001 2 218
1976 SI WA 09:00:00 TS -11.21 128.35 188 188 P_____P__PP_P_ SH041976 -11.19 128.35 27 -1 -11.21 128.34 20 28 997 -11.18 128.28 TC 35 997 -11.22 128.32 1 28 -11.25 128.48 TC 30 1000 2 228
1976 SI WA 10:00:00 TS -11.22 128.33 30 997 bom 199 197 P_____O__PP_P_ SH041976 -11.23 128.33 28 -1 -11.20 128.30 20 30 997 2.50 -11.18 128.25 TC 35 997 -11.24 128.31 1 28 -11.27 128.44 TC 31 999 2 221
1976 SI WA 12:00:00 TS -11.27 128.29 197 197 O_____P__OO_O_ jtwc_sh SH041976 -11.30 128.30 30 -1 -11.19 128.23 20 30 997 -11.20 128.20 TC 35 997 -11.30 128.30 1 30 -11.30 128.40 TC 35 998 2 223
1976 SI WA 13:00:00 TS -11.29 128.28 30 997 bom 197 197 P_____O__PP_P_ SH041976 -11.33 128.30 30 -1 -11.20 128.20 20 30 997 2.50 -11.22 128.19 TC 35 996 -11.33 128.29 1 30 -11.32 128.39 TC 35 997 2 0
1976 SI WA 15:00:00 TS -11.35 128.28 197 196 P_____P__PP_P_ SH041976 -11.40 128.30 32 -1 -11.26 128.19 20 30 996 -11.28 128.19 TC 37 995 -11.39 128.28 1 32 -11.35 128.39 TC 35 997 2 0
1976 SI WA 16:00:00 TS -11.38 128.28 30 996 bom 196 196 P_____O__PP_P_ SH041976 -11.43 128.30 33 -1 -11.30 128.20 20 30 996 2.50 -11.32 128.19 TC 38 995 -11.42 128.27 1 32 -11.37 128.40 TC 35 996 2 168
1976 SI WA 18:00:00 TS -11.44 128.28 196 196 O_____P__OP_O_ jtwc_sh SH041976 -11.50 128.30 35 0 -11.37 128.20 20 36 994 -11.40 128.20 TC 40 994 -11.48 128.26 1 34 -11.40 128.40 TC 35 996 2 196
1976 SI WA 19:00:00 TS -11.47 128.27 40 994 bom 196 196 P_____O__PP_P_ SH041976 -11.53 128.29 35 0 -11.40 128.20 30 40 994 3.00 -11.43 128.20 TC 40 993 -11.52 128.25 1 35 -11.41 128.39 TC 35 995 2 0
1976 SI WA 21:00:00 TS -11.53 128.25 207 207 P_____P__PP_P_ SH041976 -11.60 128.26 37 0 -11.47 128.20 30 40 994 -11.50 128.19 TC 41 993 -11.59 128.23 1 36 -11.44 128.36 TC 37 995 2 199
1976 SI WA 22:00:00 TS -11.56 128.24 40 994 bom 207 207 P_____O__PP_P_ SH041976 -11.63 128.24 38 0 -11.50 128.20 30 40 994 3.00 -11.53 128.18 TC 41 992 -11.62 128.22 1 37 -11.46 128.34 TC 38 994 2 205
1976 SI WA 1975-12-01 00:00:00 TS -11.63 128.21 207 207 O_____P__PO_O_ jtwc_sh SH041976 -11.70 128.20 40 0 -11.57 128.21 30 40 994 -11.60 128.17 TC 42 992 -11.70 128.20 2 39 -11.50 128.30 TC 40 994 2 203
1976 SI WA 01:00:00 TS -11.66 128.20 40 994 bom 207 207 P_____O__PP_P_ SH041976 -11.73 128.18 40 0 -11.60 128.20 30 40 994 3.00 3.00 -11.63 128.16 TC 42 991 -11.74 128.19 2 39 -11.52 128.28 TC 40 993 2 207
1976 SI WA 03:00:00 TS -11.73 128.16 207 206 P_____P__PP_P_ SH041976 -11.79 128.15 40 0 -11.67 128.13 30 40 992 -11.70 128.14 TC 43 991 -11.83 128.16 2 40 -11.58 128.25 TC 42 992 2 211
1976 SI WA 04:00:00 TS -11.76 128.14 40 992 bom 217 217 P_____O__PP_P_ SH041976 -11.83 128.13 40 0 -11.70 128.10 30 40 992 3.00 -11.73 128.13 TC 44 990 -11.87 128.14 2 40 -11.62 128.23 TC 43 992 2 202
1976 SI WA 06:00:00 TS -11.84 128.12 217 217 O_____P__OP_O_ jtwc_sh SH041976 -11.90 128.10 40 0 -11.77 128.10 30 40 990 -11.80 128.10 TC 45 990 -11.96 128.11 2 41 -11.70 128.20 TC 45 991 2 200
1976 SI WA 07:00:00 TS -11.88 128.10 40 990 bom 218 218 P_____O__PP_P_ SH041976 -11.95 128.08 40 0 -11.80 128.10 30 40 990 3.00 -11.83 128.09 TC 45 989 -12.00 128.09 2 41 -11.75 128.18 TC 45 990 3 205
1976 SI WA 09:00:00 TS -11.97 128.06 218 218 P_____P__PP_P_ SH041976 -12.06 128.05 42 0 -11.86 128.03 30 43 989 -11.89 128.05 TC 47 989 -12.09 128.05 2 42 -11.85 128.15 TC 47 990 3 201
1976 SI WA 10:00:00 TS -12.01 128.05 45 989 bom 223 213 P_____O__PP_P_ SH041976 -12.11 128.03 43 0 -11.90 128.00 30 45 989 3.00 -11.92 128.04 TC 48 989 -12.13 128.04 2 42 -11.90 128.13 TC 48 989 3 193
1976 SI WA 12:00:00 TS -12.11 128.02 213 213 O_____P__OO_O_ jtwc_sh SH041976 -12.20 128.00 45 0 -12.04 128.00 30 45 989 -12.00 128.00 TC 50 989 -12.20 128.00 2 43 -12.00 128.10 TC 50 989 3 195
1976 SI WA 13:00:00 TS -12.14 128.00 45 989 bom 213 204 P_____O__PP_P_ SH041976 -12.23 127.98 45 0 -12.10 128.00 30 45 989 3.00 -12.05 127.98 TC 50 988 -12.23 127.99 2 43 -12.04 128.08 TC 50 988 2 209
1976 SI WA 15:00:00 TS -12.20 127.96 204 199 P_____P__PP_P_ SH041976 -12.26 127.95 45 0 -12.17 127.93 30 45 989 -12.15 127.95 TC 50 988 -12.28 127.96 2 44 -12.11 128.05 TC 50 988 2 214
1976 SI WA 16:00:00 TS -12.23 127.95 45 989 bom 199 189 P_____O__PP_P_ SH041976 -12.27 127.93 45 0 -12.20 127.90 30 45 989 3.00 -12.20 127.93 TC 50 988 -12.30 127.94 2 44 -12.14 128.03 TC 50 988 2 202
1976 SI WA 18:00:00 TS -12.29 127.92 189 189 O_____P__OP_O_ jtwc_sh SH041976 -12.30 127.90 45 0 -12.27 127.90 30 48 988 -12.30 127.90 TC 50 988 -12.35 127.91 2 46 -12.20 128.00 TC 50 988 2 208
1976 SI WA 19:00:00 TS -12.32 127.91 50 988 bom 189 179 P_____O__PP_P_ SH041976 -12.33 127.88 45 0 -12.30 127.90 30 50 988 3.50 -12.34 127.89 TC 50 988 -12.37 127.90 2 46 -12.23 127.98 TC 50 988 2 213
1976 SI WA 21:00:00 TS -12.38 127.87 179 179 P_____P__PP_P_ SH041976 -12.39 127.85 47 0 -12.37 127.83 30 50 988 -12.41 127.86 TC 50 988 -12.42 127.86 2 47 -12.30 127.95 TC 50 988 2 212
1976 SI WA 22:00:00 TS -12.41 127.85 50 988 bom 174 164 P_____O__PP_P_ SH041976 -12.43 127.83 48 0 -12.40 127.80 30 50 988 3.50 -12.44 127.84 TC 50 988 -12.44 127.84 2 47 -12.33 127.93 TC 50 988 2 209
1976 SI WA 1975-12-02 00:00:00 TS -12.48 127.82 164 164 O_____P__OO_O_ jtwc_sh SH041976 -12.50 127.80 50 0 -12.47 127.80 30 50 988 -12.50 127.80 TC 50 988 -12.50 127.80 2 49 -12.40 127.90 TC 50 988 2 200
1976 SI WA 01:00:00 TS -12.51 127.80 50 988 bom 164 154 P_____O__PP_P_ SH041976 -12.53 127.79 50 0 -12.50 127.80 30 50 988 3.50 3.50 -12.53 127.77 TC 50 987 -12.53 127.78 2 50 -12.43 127.89 TC 50 987 2 209
1976 SI WA 03:00:00 TS -12.58 127.76 154 149 P_____P__PP_P_ SH041976 -12.59 127.76 52 0 -12.57 127.74 30 50 986 -12.60 127.71 TC 52 986 -12.61 127.73 2 52 -12.49 127.86 TC 52 986 2 213
1976 SI WA 04:00:00 TS -12.61 127.74 50 986 bom 149 139 P_____O__PP_P_ SH041976 -12.63 127.75 53 0 -12.60 127.70 30 50 986 3.50 -12.63 127.67 TC 53 985 -12.65 127.70 2 53 -12.53 127.84 TC 53 986 3 215
1976 SI WA 06:00:00 TS -12.68 127.68 139 139 O_____P__OP_O_ jtwc_sh SH041976 -12.70 127.70 55 0 -12.67 127.63 30 53 984 -12.70 127.60 TC 55 984 -12.73 127.64 2 55 -12.60 127.80 TC 55 985 3 217
1976 SI WA 07:00:00 TS -12.72 127.65 55 984 bom 134 124 P_____O__PP_P_ SH041976 -12.75 127.66 55 0 -12.70 127.60 30 55 984 4.00 -12.73 127.57 TC 55 983 -12.78 127.60 2 56 -12.64 127.78 TC 55 984 3 219
1976 SI WA 09:00:00 TS -12.81 127.57 124 120 P_____P__PP_P_ SH041976 -12.85 127.57 57 0 -12.76 127.53 30 55 982 -12.79 127.51 TC 57 982 -12.87 127.53 2 58 -12.74 127.72 TC 57 983 3 220
1976 SI WA 10:00:00 TS -12.86 127.53 55 982 bom 109 105 P_____O__PP_P_ SH041976 -12.90 127.51 58 0 -12.80 127.50 30 55 982 4.00 -12.83 127.47 TC 58 981 -12.91 127.49 2 59 -12.79 127.69 TC 58 982 4 221
1976 SI WA 12:00:00 TS -12.96 127.44 95 95 O_____P__OO_O_ jtwc_sh SH041976 -13.00 127.40 60 0 -12.94 127.44 30 58 980 -12.90 127.40 TC 60 980 -13.00 127.40 2 62 -12.90 127.60 TC 60 981 4 222
1976 SI WA 13:00:00 TS -13.00 127.39 60 980 bom 95 81 P_____O__PP_P_ SH041976 -13.04 127.35 60 0 -13.00 127.40 30 60 980 4.00 -12.94 127.36 TC 60 979 -13.04 127.35 2 62 -12.95 127.54 TC 60 980 4 229
1976 SI WA 15:00:00 TS -13.08 127.29 81 79 P_____P__PP_P_ SH041976 -13.10 127.26 62 0 -13.06 127.27 30 60 978 -13.04 127.26 TC 62 978 -13.13 127.25 2 63 -13.06 127.42 TC 62 979 4 233
1976 SI WA 16:00:00 TS -13.12 127.23 60 978 bom 79 67 P_____O__PP_P_ SH041976 -13.13 127.21 63 0 -13.10 127.20 30 60 978 4.00 -13.09 127.21 TC 63 977 -13.18 127.20 2 63 -13.11 127.34 TC 63 978 4 232
1976 SI WA 18:00:00 TS -13.22 127.11 67 55 O_____P__OP_O_ jtwc_sh SH041976 -13.20 127.10 65 1 -13.24 127.07 30 63 976 -13.20 127.10 TC 65 976 -13.26 127.08 2 65 -13.20 127.20 TC 65 977 5 231
1976 SI WA 19:00:00 TS -13.27 127.05 65 976 bom 55 55 P_____O__PP_P_ SH041976 -13.25 127.04 65 1 -13.30 127.00 40 65 976 4.50 -13.26 127.04 TC 65 975 -13.31 127.02 2 65 -13.24 127.13 TC 65 976 5 234
1976 SI WA 21:00:00 TS -13.36 126.91 44 44 P_____P__PP_P_ SH041976 -13.35 126.91 67 1 -13.37 126.87 40 68 974 -13.37 126.91 TC 67 974 -13.39 126.89 2 66 -13.31 127.00 TC 67 975 5 236
1976 SI WA 22:00:00 TS -13.40 126.85 70 974 bom 46 35 P_____O__PP_P_ SH041976 -13.40 126.84 68 1 -13.40 126.80 40 70 974 4.50 -13.42 126.84 TC 68 974 -13.43 126.83 2 66 -13.34 126.93 TC 68 975 5 238
1976 SI WA 1975-12-03 00:00:00 TS -13.48 126.71 39 39 O_____P__OO_O_ jtwc_sh SH041976 -13.50 126.70 70 1 -13.47 126.67 40 70 973 -13.50 126.70 TC 70 973 -13.50 126.70 4 68 -13.40 126.80 TC 70 974 5 239
1976 SI WA 01:00:00 TS -13.51 126.65 70 973 bom 46 39 P_____O__PP_P_ SH041976 -13.54 126.63 70 1 -13.50 126.60 40 70 973 4.50 4.50 -13.53 126.63 TC 70 972 -13.53 126.65 4 69 -13.44 126.73 TC 70 973 4 245
1976 SI WA 03:00:00 TS -13.56 126.52 44 44 P_____P__PP_P_ SH041976 -13.61 126.50 72 1 -13.50 126.47 40 73 972 -13.56 126.50 TC 70 971 -13.58 126.56 4 71 -13.51 126.60 TC 72 972 4 248
1976 SI WA 04:00:00 TS -13.59 126.46 75 972 bom 44 44 P_____O__PP_P_ SH041976 -13.65 126.43 73 1 -13.50 126.40 40 75 972 4.50 -13.58 126.43 TC 70 971 -13.60 126.51 4 72 -13.54 126.53 TC 73 972 4 249
1976 SI WA 06:00:00 TS -13.64 126.33 44 33 O_____P__OP_O_ jtwc_sh SH041976 -13.70 126.30 75 1 -13.57 126.27 40 75 970 -13.60 126.30 TC 70 970 -13.64 126.40 4 74 -13.60 126.40 TC 75 971 4 249
1976 SI WA 07:00:00 TS -13.66 126.27 75 970 bom 33 33 P_____O__PP_P_ SH041976 -13.72 126.25 75 1 -13.60 126.20 40 75 970 4.50 -13.61 126.24 TC 70 969 -13.66 126.34 4 75 -13.62 126.34 TC 75 970 4 255
1976 SI WA 09:00:00 TS -13.68 126.15 35 33 P_____P__PP_P_ SH041976 -13.74 126.14 77 1 -13.60 126.07 40 75 968 -13.64 126.13 TC 72 968 -13.71 126.20 4 77 -13.65 126.22 TC 77 969 4 258
1976 SI WA 10:00:00 TS -13.70 126.08 75 968 bom 33 33 P_____O__PP_P_ SH041976 -13.76 126.08 78 1 -13.60 126.00 40 75 968 4.50 -13.66 126.06 TC 73 967 -13.74 126.11 4 78 -13.66 126.16 TC 78 968 5 255
1976 SI WA 12:00:00 TS -13.74 125.91 39 31 O_____P__OO_O_ jtwc_sh SH041976 -13.80 125.90 80 1 -13.66 125.88 40 78 966 -13.70 125.90 TC 75 966 -13.80 125.90 4 81 -13.70 126.00 TC 80 967 6 253
1976 SI WA 13:00:00 TS -13.78 125.80 80 966 bom 39 39 P_____O__PP_P_ SH041976 -13.84 125.77 80 1 -13.70 125.80 40 80 966 5.00 -13.72 125.80 TC 76 965 -13.84 125.76 4 81 -13.72 125.91 TC 80 966 8 253
1976 SI WA 15:00:00 TS -13.86 125.52 46 46 P_____P__PP_P_ SH041976 -13.94 125.45 82 1 -13.76 125.55 40 80 963 -13.78 125.55 TC 80 963 -13.94 125.43 4 83 -13.78 125.69 TC 82 964 9 254
1976 SI WA 16:00:00 TS -13.90 125.36 80 963 bom 49 49 P_____O__PP_P_ SH041976 -13.99 125.27 83 2 -13.80 125.40 40 80 963 5.00 -13.82 125.41 TC 81 962 -13.99 125.25 4 83 -13.82 125.57 TC 83 963 10 253
1976 SI WA 18:00:00 TS -14.00 125.03 70 70 O_____P__OP_O_ jtwc_sh SH041976 -14.10 124.90 85 2 -13.94 125.07 40 83 960 -13.90 125.10 TC 85 960 -14.09 124.88 4 85 -13.90 125.30 TC 85 962 11 253
1976 SI WA 19:00:00 TS -14.06 124.85 85 960 bom 70 70 P_____O__PP_P_ SH041976 -14.15 124.71 85 2 -14.00 124.90 40 85 960 5.00 -13.94 124.93 TC 85 959 -14.15 124.69 4 86 -13.95 125.15 TC 85 961 11 254
1976 SI WA 21:00:00 TS -14.15 124.48 87 87 P_____P__PP_P_ SH041976 -14.26 124.32 87 2 -14.06 124.57 40 88 957 -14.04 124.55 TC 87 957 -14.25 124.31 4 87 -14.05 124.82 TC 87 959 11 255
1976 SI WA 22:00:00 TS -14.20 124.30 90 957 bom 106 106 P_____O__PP_P_ SH041976 -14.31 124.13 88 2 -14.10 124.40 40 90 957 5.50 -14.09 124.36 TC 88 956 -14.30 124.13 4 88 -14.10 124.64 TC 88 958 11 254
1976 SI WA 1975-12-04 00:00:00 TS -14.31 123.95 139 139 O_____P__OO_O_ jtwc_sh SH041976 -14.40 123.80 90 2 -14.24 123.99 40 90 954 -14.20 124.00 TC 90 954 -14.40 123.80 4 90 -14.20 124.30 TC 90 956 10 253
1976 SI WA 01:00:00 TS -14.35 123.80 90 954 bom 147 139 P_____O__PP_P_ SH041976 -14.44 123.67 90 2 -14.30 123.80 40 90 954 5.50 5.50 -14.25 123.84 TC 90 953 -14.43 123.67 4 90 -14.24 124.14 TC 91 955 8 254
1976 SI WA 03:00:00 TS -14.42 123.54 165 165 P_____P__PP_P_ SH041976 -14.51 123.46 92 2 -14.37 123.51 40 90 952 -14.36 123.55 TC 92 952 -14.48 123.44 4 91 -14.30 123.82 TC 95 953 7 254
1976 SI WA 04:00:00 TS -14.45 123.43 90 952 bom 163 163 P_____O__PP_P_ SH041976 -14.54 123.37 93 2 -14.40 123.40 40 90 952 5.50 -14.41 123.43 TC 93 952 -14.50 123.34 4 91 -14.33 123.67 TC 96 952 7 252
1976 SI WA 06:00:00 TS -14.52 123.22 178 178 O_____P__OP_O_ jtwc_sh SH041976 -14.60 123.20 95 2 -14.47 123.19 40 90 951 -14.50 123.20 TC 95 951 -14.55 123.15 4 93 -14.40 123.40 TC 100 951 6 252
1976 SI WA 07:00:00 TS -14.55 123.12 90 951 bom 186 178 P_____O__PP_P_ SH041976 -14.62 123.10 95 2 -14.50 123.10 40 90 951 5.50 -14.53 123.10 TC 95 950 -14.58 123.06 4 93 -14.44 123.28 TC 100 950 6 252
1976 SI WA 09:00:00 TS -14.61 122.93 196 196 P_____P__PP_P_ SH041976 -14.67 122.91 95 2 -14.56 122.89 40 90 949 -14.58 122.94 TC 95 949 -14.65 122.88 4 94 -14.53 123.08 TC 100 949 6 250
1976 SI WA 10:00:00 TS -14.65 122.84 90 949 bom 203 193 P_____O__PP_P_ SH041976 -14.70 122.81 95 2 -14.60 122.80 40 90 949 5.50 -14.61 122.87 TC 95 949 -14.69 122.79 4 94 -14.58 122.98 TC 100 949 6 241
1976 SI WA 12:00:00 TS -14.75 122.66 189 189 O_____P__OO_O_ jtwc_sh SH041976 -14.80 122.60 95 2 -14.72 122.67 40 90 948 -14.70 122.70 TC 95 948 -14.80 122.60 4 96 -14.70 122.80 TC 100 948 7 236
1976 SI WA 13:00:00 TS -14.83 122.56 90 948 bom 192 176 P_____O__PP_P_ SH041976 -14.88 122.49 95 2 -14.80 122.60 40 90 948 5.50 -14.78 122.60 TC 95 947 -14.89 122.49 4 96 -14.77 122.70 TC 100 947 8 229
1976 SI WA 15:00:00 TS -15.02 122.34 179 169 P_____P__PP_P_ SH041976 -15.07 122.26 97 3 -14.99 122.41 40 93 946 -14.97 122.37 TC 97 946 -15.08 122.26 4 97 -14.93 122.51 TC 102 947 9 228
1976 SI WA 16:00:00 TS -15.12 122.23 95 946 bom 173 159 P_____O__PP_P_ SH041976 -15.18 122.14 98 3 -15.10 122.30 40 95 946 5.50 -15.08 122.25 TC 98 946 -15.19 122.14 4 97 -15.01 122.41 TC 103 946 9 227
1976 SI WA 18:00:00 TS -15.34 121.99 165 156 O_____P__OP_O_ jtwc_sh SH041976 -15.40 121.90 100 3 -15.30 122.04 40 95 945 -15.30 122.00 TC 100 945 -15.42 121.90 4 98 -15.20 122.20 TC 105 946 10 227
1976 SI WA 19:00:00 TS -15.44 121.87 95 945 bom 163 162 P_____O__PP_P_ SH041976 -15.51 121.78 100 3 -15.40 121.90 40 95 945 5.50 -15.41 121.87 TC 100 944 -15.53 121.78 4 98 -15.30 122.09 TC 105 945 10 228
1976 SI WA 21:00:00 TS -15.66 121.62 162 162 P_____P__PP_P_ SH041976 -15.74 121.54 100 3 -15.60 121.63 40 98 943 -15.63 121.59 TC 100 943 -15.74 121.54 4 99 -15.51 121.86 TC 105 944 10 228
1976 SI WA 22:00:00 TS -15.76 121.50 100 943 bom 162 162 P_____O__PP_P_ SH041976 -15.84 121.43 100 3 -15.70 121.50 40 100 943 6.00 -15.73 121.46 TC 100 943 -15.84 121.43 4 100 -15.62 121.74 TC 105 944 9 232
1976 SI WA 1975-12-05 00:00:00 TS -15.94 121.25 170 170 O_____P__OO_O_ jtwc_sh SH041976 -16.00 121.20 100 3 -15.92 121.23 40 100 942 -15.90 121.20 TC 100 942 -16.00 121.20 4 101 -15.80 121.50 TC 105 943 8 235
1976 SI WA 01:00:00 TS -16.00 121.14 100 942 bom 177 177 P_____O__PP_P_ SH041976 -16.05 121.09 100 3 -16.00 121.10 40 100 942 6.00 6.00 -15.96 121.09 TC 100 941 -16.05 121.09 4 101 -15.87 121.38 TC 105 942 7 249
1976 SI WA 03:00:00 TS -16.05 120.93 186 186 P_____P__PP_P_ SH041976 -16.09 120.89 102 3 -16.01 120.89 40 100 940 -16.04 120.88 TC 102 940 -16.12 120.88 4 102 -15.99 121.13 TC 107 941 6 256
1976 SI WA 04:00:00 TS -16.07 120.83 100 940 bom 195 195 P_____O__PP_P_ SH041976 -16.09 120.79 103 3 -16.00 120.80 40 100 940 6.00 -16.06 120.78 TC 103 940 -16.15 120.78 4 102 -16.03 121.02 TC 108 941 6 260
1976 SI WA 06:00:00 TS -16.11 120.63 212 212 O_____P__OP_O_ jtwc_sh SH041976 -16.10 120.60 105 3 -16.07 120.60 40 100 939 -16.10 120.60 TC 105 939 -16.17 120.58 4 103 -16.10 120.80 TC 110 940 6 259
1976 SI WA 07:00:00 TS -16.13 120.53 100 939 bom 222 222 P_____O__PP_P_ SH041976 -16.12 120.50 105 3 -16.10 120.50 40 100 939 6.00 -16.12 120.51 TC 105 938 -16.18 120.49 4 103 -16.13 120.71 TC 110 939 6 261
1976 SI WA 09:00:00 TS -16.15 120.35 235 235 P_____P__PP_P_ SH041976 -16.15 120.30 105 3 -16.10 120.29 40 103 938 -16.16 120.35 TC 105 937 -16.19 120.29 4 104 -16.16 120.54 TC 112 938 5 263
1976 SI WA 10:00:00 TS -16.16 120.25 105 938 bom 235 235 P_____O__PP_P_ SH041976 -16.17 120.20 105 3 -16.10 120.20 40 105 938 6.00 -16.17 120.27 TC 105 937 -16.19 120.19 4 105 -16.18 120.46 TC 113 938 5 260
1976 SI WA 12:00:00 TS -16.19 120.08 255 255 O_____P__OO_O_ jtwc_sh SH041976 -16.20 120.00 105 3 -16.17 120.07 40 105 936 -16.20 120.10 TC 105 936 -16.20 120.00 4 106 -16.20 120.30 TC 115 937 5 259
1976 SI WA 13:00:00 TS -16.21 119.98 105 936 bom 264 264 P_____O__PP_P_ SH041976 -16.22 119.90 105 3 -16.20 120.00 40 105 936 6.00 -16.22 120.01 TC 105 935 -16.22 119.90 4 106 -16.22 120.21 TC 115 936 6 261
1976 SI WA 15:00:00 TS -16.24 119.78 283 283 P_____P__PP_P_ SH041976 -16.25 119.70 107 3 -16.20 119.81 40 105 935 -16.25 119.81 TC 107 934 -16.25 119.68 4 107 -16.25 120.01 TC 115 935 6 262
1976 SI WA 16:00:00 TS -16.25 119.68 105 935 bom 288 288 P_____O__PP_P_ SH041976 -16.27 119.60 108 3 -16.20 119.70 40 105 935 6.00 -16.27 119.71 TC 108 934 -16.26 119.58 4 107 -16.27 119.91 TC 115 935 6 260
1976 SI WA 18:00:00 TS -16.29 119.48 308 308 O_____P__OP_O_ jtwc_sh SH041976 -16.30 119.40 110 3 -16.27 119.50 40 105 933 -16.30 119.50 TC 110 933 -16.29 119.37 4 109 -16.30 119.70 TC 115 934 6 259
1976 SI WA 19:00:00 TS -16.31 119.38 105 933 bom 318 318 P_____O__PP_P_ SH041976 -16.32 119.30 110 3 -16.30 119.40 40 105 933 6.00 -16.32 119.39 TC 110 932 -16.31 119.27 4 109 -16.32 119.60 TC 115 933 6 261
1976 SI WA 21:00:00 TS -16.34 119.17 338 338 P_____P__PP_P_ SH041976 -16.35 119.09 110 3 -16.30 119.20 40 108 931 -16.35 119.19 TC 112 931 -16.34 119.07 4 110 -16.35 119.39 TC 117 932 6 262
1976 SI WA 22:00:00 TS -16.35 119.07 110 931 bom 345 345 P_____O__PP_P_ SH041976 -16.37 118.99 110 3 -16.30 119.10 40 110 931 6.50 -16.37 119.08 TC 113 930 -16.36 118.98 4 110 -16.37 119.29 TC 118 931 6 259
1976 SI WA 1975-12-06 00:00:00 TS -16.39 118.88 365 365 O_____P__OO_O_ jtwc_sh SH041976 -16.40 118.80 110 3 -16.37 118.89 40 110 929 -16.40 118.90 TC 115 929 -16.40 118.80 4 112 -16.40 119.10 TC 120 930 6 258
1976 SI WA 01:00:00 TS -16.41 118.79 110 929 bom 375 375 P_____O__PP_P_ SH041976 -16.41 118.71 110 3 -16.40 118.80 40 110 929 6.50 6.50 -16.42 118.82 TC 115 928 -16.41 118.71 4 112 -16.42 119.01 TC 120 929 5 260
1976 SI WA 03:00:00 TS -16.44 118.63 395 395 P_____P__PP_P_ SH041976 -16.44 118.53 112 3 -16.40 118.66 40 110 928 -16.45 118.68 TC 115 927 -16.44 118.54 4 114 -16.45 118.83 TC 122 928 5 260
1976 SI WA 04:00:00 TS -16.45 118.56 110 928 bom 391 391 P_____O__PP_P_ SH041976 -16.46 118.45 113 4 -16.40 118.60 40 110 928 6.50 -16.47 118.62 TC 115 927 -16.46 118.46 4 114 -16.47 118.75 TC 123 928 4 255
1976 SI WA 06:00:00 TS -16.49 118.41 409 409 O_____P__OP_O_ jtwc_sh SH041976 -16.50 118.30 115 4 -16.47 118.47 40 110 926 -16.50 118.50 TC 115 926 -16.50 118.32 4 116 -16.50 118.60 TC 125 927 4 253
1976 SI WA 07:00:00 TS -16.52 118.34 110 926 bom 411 411 P_____O__PP_P_ SH041976 -16.52 118.23 115 4 -16.50 118.40 40 110 926 6.50 -16.51 118.43 TC 115 925 -16.52 118.25 4 117 -16.51 118.52 TC 125 926 4 253
1976 SI WA 09:00:00 TS -16.55 118.22 402 402 P_____P__PP_P_ SH041976 -16.58 118.12 117 4 -16.50 118.27 40 110 925 -16.54 118.28 TC 117 924 -16.58 118.13 4 118 -16.53 118.38 TC 125 925 4 251
1976 SI WA 10:00:00 TS -16.58 118.16 110 925 bom 402 402 P_____O__PP_P_ SH041976 -16.62 118.07 118 4 -16.50 118.20 40 110 925 6.50 -16.55 118.22 TC 118 924 -16.61 118.08 4 119 -16.55 118.31 TC 125 925 4 240
1976 SI WA 12:00:00 TS -16.64 118.06 405 397 O_____P__OO_O_ jtwc_sh SH041976 -16.70 118.00 120 4 -16.55 118.05 40 110 923 -16.60 118.10 TC 120 923 -16.70 118.00 4 121 -16.60 118.20 TC 125 924 3 232
1976 SI WA 13:00:00 TS -16.68 118.02 110 923 bom 397 387 P_____O__PP_P_ SH041976 -16.74 117.97 120 4 -16.60 118.00 40 110 923 6.50 -16.63 118.05 TC 120 922 -16.75 117.97 4 121 -16.63 118.15 TC 125 923 3 214
1976 SI WA 15:00:00 TS -16.78 117.97 387 387 P_____P__PP_P_ SH041976 -16.82 117.93 122 4 -16.73 118.00 40 110 921 -16.71 117.97 TC 120 921 -16.86 117.92 4 121 -16.72 118.07 TC 127 922 3 204
1976 SI WA 16:00:00 TS -16.83 117.95 110 921 bom 387 369 P_____O__PP_P_ SH041976 -16.87 117.91 123 4 -16.80 118.00 40 110 921 6.50 -16.77 117.94 TC 120 920 -16.93 117.90 4 121 -16.77 118.04 TC 128 921 4 193
1976 SI WA 18:00:00 TS -16.97 117.92 369 369 O_____P__OP_O_ jtwc_sh SH041976 -17.00 117.90 125 4 -16.93 117.93 40 110 919 -16.90 117.90 TC 120 919 -17.07 117.88 4 122 -16.90 118.00 TC 130 920 4 193
1976 SI WA 19:00:00 TS -17.04 117.91 110 919 bom 369 348 P_____O__PP_P_ SH041976 -17.08 117.89 125 4 -17.00 117.90 40 110 919 6.50 -16.98 117.89 TC 120 918 -17.15 117.88 4 122 -16.97 117.99 TC 130 919 5 0
1976 SI WA 21:00:00 TS -17.22 117.90 348 337 P_____P__PP_P_ SH041976 -17.27 117.89 125 4 -17.19 117.89 40 110 917 -17.17 117.88 TC 122 917 -17.31 117.88 4 123 -17.12 117.98 TC 132 918 6 186
1976 SI WA 22:00:00 TS -17.32 117.91 110 917 bom 337 317 P_____O__PP_P_ SH041976 -17.38 117.89 125 4 -17.30 117.90 40 110 917 6.50 -17.28 117.88 TC 123 916 -17.41 117.89 4 123 -17.21 117.98 TC 133 917 6 0
1976 SI WA 1975-12-07 00:00:00 TS -17.53 117.92 317 306 O_____P__OO_O_ jtwc_sh SH041976 -17.60 117.90 125 4 -17.50 117.90 40 113 915 -17.50 117.90 TC 125 915 -17.60 117.90 4 124 -17.40 118.00 TC 135 916 6 175
1976 SI WA 01:00:00 TS -17.64 117.92 115 915 bom 306 286 P_____O__PP_P_ SH041976 -17.71 117.90 125 4 -17.60 117.90 40 115 915 7.00 7.00 -17.61 117.91 TC 125 915 -17.70 117.90 4 124 -17.51 118.01 TC 135 915 7 0
1976 SI WA 03:00:00 TS -17.86 117.93 276 266 P_____P__PP_P_ SH041976 -17.94 117.89 125 4 -17.79 117.89 40 115 915 -17.84 117.95 TC 125 915 -17.90 117.91 4 124 -17.74 118.05 TC 135 915 7 177
1976 SI WA 04:00:00 TS -17.97 117.94 115 915 bom 266 241 P_____O__PP_P_ SH041976 -18.06 117.89 125 4 -17.90 117.90 40 115 915 7.00 -17.95 117.97 TC 125 915 -18.01 117.92 4 124 -17.86 118.07 TC 135 915 7 174
1976 SI WA 06:00:00 TS -18.22 117.97 241 232 O_____P__OP_O_ jtwc_sh SH041976 -18.30 117.90 125 4 -18.16 117.97 40 115 915 -18.20 118.00 TC 125 915 -18.24 117.93 4 124 -18.10 118.10 TC 135 915 7 175
1976 SI WA 07:00:00 TS -18.34 117.98 115 915 bom 232 201 P_____O__PP_P_ SH041976 -18.41 117.91 125 4 -18.30 118.00 40 115 915 7.00 -18.33 118.00 TC 125 915 -18.36 117.95 4 124 -18.21 118.10 TC 135 915 7 0
1976 SI WA 09:00:00 TS -18.58 117.99 201 190 P_____P__PP_P_ SH041976 -18.64 117.94 125 4 -18.57 118.01 40 115 915 -18.59 118.00 TC 125 915 -18.61 117.97 4 124 -18.44 118.10 TC 135 915 7 178
1976 SI WA 10:00:00 TS -18.70 118.00 115 915 bom 190 168 P_____O__PP_P_ SH041976 -18.75 117.96 125 4 -18.70 118.00 40 115 915 7.00 -18.73 118.00 TC 125 915 -18.74 117.98 4 124 -18.56 118.10 TC 135 915 8 177
1976 SI WA 12:00:00 TS -18.96 118.02 156 145 O_____P__OO_O_ jtwc_sh SH041976 -19.00 118.00 125 4 -18.97 118.00 40 115 915 -19.00 118.00 TC 125 915 -19.00 118.00 4 124 -18.80 118.10 TC 135 915 8 175
1976 SI WA 13:00:00 TS -19.10 118.03 115 915 bom 145 111 P_____O__PP_P_ SH041976 -19.14 118.02 124 4 -19.10 118.00 40 115 915 7.00 -19.13 118.01 TC 125 915 -19.14 118.02 4 122 -18.93 118.11 TC 135 915 8 176
1976 SI WA 15:00:00 TS -19.38 118.06 111 100 P_____P__PP_P_ SH041976 -19.44 118.06 122 4 -19.37 117.99 40 115 915 -19.40 118.05 TC 125 915 -19.42 118.05 4 120 -19.19 118.15 TC 135 915 9 176
1976 SI WA 16:00:00 TS -19.52 118.08 115 915 bom 100 67 P_____O__PP_P_ SH041976 -19.60 118.07 121 4 -19.50 118.00 40 115 915 7.00 -19.53 118.07 TC 125 915 -19.57 118.07 4 119 -19.32 118.17 TC 135 915 9 174
1976 SI WA 18:00:00 TS -19.80 118.11 67 55 O_____P__OP_O_ jtwc_sh SH041976 -19.90 118.10 120 4 -19.76 118.07 40 115 915 -19.80 118.10 TC 125 915 -19.86 118.09 4 117 -19.60 118.20 TC 135 915 9 175
1976 SI WA 19:00:00 TS -19.95 118.12 115 915 bom 55 22 P_____O__PP_P_ SH041976 -20.04 118.11 118 4 -19.90 118.10 40 115 915 7.00 -19.94 118.11 TC 122 918 -20.01 118.11 4 116 -19.75 118.21 TC 125 915 9 178
1976 SI WA 21:00:00 TS -20.23 118.13 22 0 P_____P__PP_P_ SH041976 -20.32 118.12 115 4 -20.17 118.10 40 115 915 -20.21 118.12 TC 117 925 -20.30 118.12 4 114 -20.06 118.22 TC 107 916 9 0
1976 SI WA 22:00:00 TS -20.38 118.13 115 915 bom 0 0 P_____O__PP_P_ SH041976 -20.45 118.12 113 4 -20.40 118.10 40 115 915 7.00 -20.34 118.12 TC 115 928 -20.44 118.12 4 113 -20.21 118.21 TC 98 916 9 0
1976 SI WA 22:20:00 TS -20.44 118.13 115 bom 0 0 P_____I__PP_P_ SH041976 -20.50 118.12 112 3 -20.50 118.10 40 115 915 7.00 -20.39 118.12 TC 114 929 -20.48 118.12 4 112 -20.26 118.21 TC 95 916 8 0
1976 SI WA 23:00:00 TS -20.51 118.13 115 917 bom 0 0 P_____O__PP_P_ SH041976 -20.58 118.11 111 3 -20.50 118.10 40 115 917 7.00 -20.47 118.11 TC 112 931 -20.57 118.11 4 112 -20.36 118.21 TC 89 916 7 0
1976 SI WA 1975-12-08 00:00:00 TS -20.64 118.12 0 0 O_____P__OO_O_ jtwc_sh SH041976 -20.70 118.10 110 3 -20.62 118.10 40 110 926 -20.60 118.10 TC 110 935 -20.70 118.10 4 111 -20.50 118.20 TC 80 917 8 0
1976 SI WA 01:00:00 TS -20.77 118.10 105 935 bom 0 0 P_____O__PP_P_ SH041976 -20.81 118.08 107 3 -20.80 118.10 40 105 935 3 -20.73 118.08 TC 105 938 -20.81 118.08 4 108 -20.63 118.19 TC 75 922 7 191
1976 SI WA 03:00:00 TS -20.98 118.05 0 0 P_____P__PP_P_ SH041976 -21.01 118.02 102 3 -21.01 118.04 40 94 943 -20.97 118.02 TC 97 946 -21.02 118.02 4 103 -20.87 118.16 TC 67 933 7 193
1976 SI WA 04:00:00 TS -21.09 118.01 90 947 bom 0 0 P_____O__PP_P_ SH041976 -21.11 117.99 100 3 -21.10 118.00 40 90 947 -21.08 117.98 TC 93 949 -21.12 117.98 4 101 -20.99 118.15 TC 63 938 6 199
1976 SI WA 06:00:00 TS -21.29 117.94 0 0 O_____P__OP_O_ jtwc_sh SH041976 -21.30 117.90 95 2 -21.30 117.93 40 83 953 -21.30 117.90 TC 85 957 -21.32 117.90 4 96 -21.20 118.10 TC 55 949 6 199
1976 SI WA 07:00:00 TS -21.39 117.90 80 957 bom 0 0 P_____O__PP_P_ SH041976 -21.40 117.85 92 2 -21.40 117.90 40 80 957 -21.40 117.87 TC 82 959 -21.41 117.85 4 93 -21.30 118.07 TC 53 951 6 201
1976 SI WA 09:00:00 TS -21.58 117.82 0 0 P_____P__PP_P_ SH041976 -21.59 117.75 87 2 -21.60 117.83 40 73 962 -21.60 117.80 TC 77 964 -21.60 117.75 4 88 -21.50 118.01 TC 50 957 6 202
1976 SI WA 10:00:00 TS -21.68 117.77 70 965 bom 0 0 P_____O__PP_P_ SH041976 -21.69 117.70 85 2 -21.70 117.80 40 70 965 -21.70 117.77 TC 75 966 -21.70 117.70 4 86 -21.60 117.98 TC 48 960 7 202
1976 SI WA 12:00:00 TS -21.88 117.69 0 0 O_____P__OO_O_ jtwc_sh SH041976 -21.90 117.60 80 1 -21.90 117.73 40 63 969 -21.90 117.70 TC 70 971 -21.90 117.60 4 81 -21.80 117.90 TC 45 966 7 200
1976 SI WA 13:00:00 TS -21.99 117.65 60 971 bom 0 0 P_____O__PP_P_ SH041976 -22.01 117.56 77 1 -22.00 117.70 30 60 971 -22.01 117.67 TC 68 972 -22.02 117.55 4 78 -21.91 117.86 TC 43 967 7 198
1976 SI WA 15:00:00 TS -22.22 117.58 0 0 P_____P__PP_P_ SH041976 -22.23 117.50 72 1 -22.19 117.64 30 53 974 -22.24 117.61 TC 65 976 -22.26 117.46 4 73 -22.14 117.76 TC 40 971 7 197
1976 SI WA 16:00:00 TS -22.34 117.54 50 976 bom 0 0 P_____O__PP_P_ SH041976 -22.35 117.47 70 1 -22.30 117.60 30 50 976 -22.36 117.57 TC 63 977 -22.39 117.42 4 70 -22.26 117.71 TC 38 973 8 198
1976 SI WA 18:00:00 TS -22.58 117.45 0 0 O_____P__OP_O_ jtwc_sh SH041976 -22.60 117.40 65 1 -22.56 117.47 30 46 979 -22.60 117.50 TC 60 981 -22.64 117.33 4 65 -22.50 117.60 TC 35 977 8 200
1976 SI WA 19:00:00 TS -22.71 117.40 45 981 bom 0 0 P_____O__PP_P_ SH041976 -22.73 117.35 62 0 -22.70 117.40 30 45 981 -22.71 117.46 TC 59 981 -22.77 117.28 4 62 -22.61 117.53 TC 35 977 8 202
1976 SI WA 21:00:00 TS -22.97 117.28 0 0 P_____P__PP_P_ SH041976 -23.01 117.24 57 0 -22.97 117.25 30 41 982 -22.94 117.36 TC 57 983 -23.03 117.20 4 57 -22.84 117.39 TC 35 980 8 202
1976 SI WA 22:00:00 TS -23.09 117.23 40 983 bom 0 0 P_____O__PP_P_ SH041976 -23.14 117.19 55 0 -23.10 117.20 30 40 983 -23.05 117.31 TC 56 983 -23.15 117.17 4 54 -22.96 117.32 TC 35 980 8 198
1976 SI WA 1975-12-09 00:00:00 TS -23.33 117.15 0 0 O_____P__OO_O_ jtwc_sh SH041976 -23.40 117.10 50 0 -23.29 117.20 30 40 984 -23.30 117.20 TC 55 985 -23.40 117.10 2 49 -23.20 117.20 TC 35 983 7 196
1976 SI WA 01:00:00 TS -23.45 117.12 40 985 bom 0 0 P_____O__PP_P_ SH041976 -23.51 117.07 48 0 -23.40 117.20 30 40 985 -23.45 117.14 TC 53 985 -23.51 117.08 2 48 -23.33 117.15 TC 34 983 8 195
1976 SI WA 03:00:00 TS -23.70 117.05 0 0 P_____P__PP_P_ SH041976 -23.71 117.03 45 0 -23.73 117.07 30 36 986 -23.76 117.03 TC 50 987 -23.72 117.04 2 47 -23.60 117.07 TC 32 985 8 194
1976 SI WA 04:00:00 TS -23.83 117.01 35 987 bom 0 0 P_____O__PP_P_ SH041976 -23.80 117.02 43 0 -23.90 117.00 30 35 987 -23.91 116.98 TC 48 988 -23.83 117.03 2 47 -23.74 117.04 TC 31 986 7 191
1976 SI WA 06:00:00 TS -24.07 116.97 0 0 O_____P__OP_O_ jtwc_sh SH041976 -24.00 117.00 40 0 -24.18 116.92 30 35 989 -24.20 116.90 TC 45 990 -24.03 117.00 2 46 -24.00 117.00 TC 30 988 7 188
1976 SI WA 07:00:00 TS -24.18 116.95 35 990 bom 0 0 P_____O__PP_P_ SH041976 -24.11 116.99 39 0 -24.30 116.90 30 35 990 -24.31 116.88 TC 45 990 -24.14 116.99 2 45 -24.12 116.99 TC 30 988 7 187
1976 SI WA 09:00:00 TS -24.40 116.93 0 0 P_____P__PP_P_ SH041976 -24.33 116.96 37 0 -24.51 116.89 30 31 990 -24.50 116.86 TC 45 991 -24.35 116.96 2 44 -24.34 116.98 TC 30 989 7 184
1976 SI WA 10:00:00 TS -24.50 116.93 30 991 bom 0 0 P_____O__PP_P_ SH041976 -24.45 116.94 36 0 -24.60 116.90 20 30 991 -24.59 116.87 TC 45 991 -24.47 116.94 2 44 -24.46 116.98 TC 30 989 7 183
1976 SI WA 12:00:00 TS -24.73 116.92 0 0 O_____P__OO_O_ jtwc_sh SH041976 -24.70 116.90 35 0 -24.78 116.89 20 30 991 -24.80 116.90 TC 45 992 -24.70 116.90 2 43 -24.70 117.00 TC 30 991 7 184
1976 SI WA 13:00:00 TS -24.86 116.91 30 992 bom 0 0 P_____O__PP_P_ SH041976 -24.82 116.87 35 0 -24.90 116.90 20 30 992 -24.93 116.92 TC 44 992 -24.82 116.87 2 -24.84 117.00 TC 30 991 8 183
1976 SI WA 15:00:00 TS -25.14 116.90 0 0 P_____P__PP_P_ SH041976 -25.08 116.81 37 0 -25.22 116.96 20 30 992 -25.22 116.98 TC 42 993 -25.09 116.81 2 -25.13 117.02 TC 30 992 9 0
1976 SI WA 16:00:00 TS -25.29 116.90 30 993 bom 0 0 P_____O__PP_P_ SH041976 -25.22 116.78 38 0 -25.40 117.00 20 30 993 -25.38 117.01 TC 41 993 -25.22 116.77 2 -25.28 117.04 TC 30 992 9 183
1976 SI WA 18:00:00 TS -25.59 116.89 0 0 O_____P__OP_O_ jtwc_sh SH041976 -25.50 116.70 40 0 -25.73 117.06 20 26 993 -25.70 117.10 TC 40 994 -25.51 116.69 2 -25.60 117.10 TC 30 993 9 0
1976 SI WA 19:00:00 TS -25.74 116.89 25 994 bom 0 0 P_____O__PP_P_ SH041976 -25.64 116.66 40 0 -25.90 117.10 80 25 994 -25.86 117.15 TC 39 994 -25.65 116.64 2 -25.76 117.15 TC 30 993 10 177
1976 SI WA 21:00:00 TS -26.07 116.92 0 0 P_____P__PP_P_ SH041976 -25.94 116.56 42 0 -26.23 117.23 80 25 994 -26.20 117.24 TC 37 995 -25.95 116.55 2 -26.10 117.27 TC 30 994 10 176
1976 SI WA 22:00:00 TS -26.23 116.94 25 995 bom 0 0 P_____O__PP_P_ SH041976 -26.09 116.51 43 0 -26.40 117.30 80 25 995 -26.36 117.30 TC 36 995 -26.10 116.50 2 -26.26 117.34 TC 30 994 10 173
1976 SI WA 1975-12-10 00:00:00 TS -26.57 117.00 0 0 O_____P__OO_O_ jtwc_sh SH041976 -26.40 116.40 45 0 -26.73 117.44 80 25 995 -26.70 117.40 TC 35 996 -26.40 116.40 6 -26.60 117.50 TC 30 995 17 143
1976 SI WA 01:00:00 NR -26.90 117.50 25 996 bom 0 ______O_______ SH041976 -1 -26.90 117.50 80 25 996 TC 6 TC 34 127